createdAt,value
2022-12-15T00:02:00.545Z,25.70
2022-12-15T00:05:04.987Z,26.48
2022-12-15T00:08:08.890Z,22.42
2022-12-15T00:11:14.144Z,13.80
2022-12-15T00:14:18.542Z,23.08
2022-12-15T00:17:22.629Z,21.35
2022-12-15T00:20:27.333Z,21.00
2022-12-15T00:23:31.770Z,19.73
2022-12-15T00:26:35.938Z,25.80
2022-12-15T00:29:40.219Z,20.10
2022-12-15T00:32:44.534Z,18.33
2022-12-15T00:35:48.310Z,20.83
2022-12-15T00:38:43.582Z,15.82
2022-12-15T00:41:28.875Z,19.10
2022-12-15T00:44:18.913Z,24.08
2022-12-15T00:47:06.874Z,20.25
2022-12-15T00:50:11.036Z,19.60
2022-12-15T00:53:15.069Z,14.40
2022-12-15T00:56:19.050Z,18.52
2022-12-15T00:59:23.090Z,18.30
2022-12-15T01:02:27.198Z,18.92
2022-12-15T01:05:31.551Z,19.45
2022-12-15T01:08:35.435Z,19.10
2022-12-15T01:11:39.658Z,21.10
2022-12-15T01:14:44.034Z,17.88
2022-12-15T01:17:48.992Z,20.75
2022-12-15T01:20:34.792Z,22.05
2022-12-15T01:23:20.306Z,17.33
2022-12-15T01:26:06.755Z,16.40
2022-12-15T01:28:52.066Z,21.67
2022-12-15T01:31:37.843Z,21.90
2022-12-15T01:34:23.815Z,25.45
2022-12-15T01:37:09.230Z,23.65
2022-12-15T01:40:13.393Z,19.60
2022-12-15T01:42:59.005Z,27.40
2022-12-15T01:45:49.768Z,29.10
2022-12-15T01:48:58.252Z,22.85
2022-12-15T01:51:48.518Z,15.20
2022-12-15T01:54:52.866Z,18.45
2022-12-15T01:57:39.211Z,16.67
2022-12-15T02:00:24.833Z,14.98
2022-12-15T02:03:12.128Z,16.88
2022-12-15T02:05:58.311Z,16.27
2022-12-15T02:08:47.534Z,23.98
2022-12-15T02:12:01.880Z,18.65
2022-12-15T02:14:54.065Z,19.50
2022-12-15T02:18:09.057Z,19.30
2022-12-15T02:21:14.181Z,17.10
2022-12-15T02:24:18.653Z,16.77
2022-12-15T02:27:13.713Z,22.40
2022-12-15T02:30:21.243Z,24.02
2022-12-15T02:33:11.506Z,24.02
2022-12-15T02:35:59.671Z,20.23
2022-12-15T02:38:45.723Z,20.50
2022-12-15T02:41:36.468Z,20.85
2022-12-15T02:44:28.970Z,22.52
2022-12-15T02:47:28.366Z,18.65
2022-12-15T02:50:29.857Z,21.60
2022-12-15T02:53:28.050Z,16.23
2022-12-15T02:56:25.761Z,19.65
2022-12-15T02:59:16.259Z,21.65
2022-12-15T03:02:06.476Z,18.75
2022-12-15T03:04:53.358Z,17.48
2022-12-15T03:07:39.009Z,24.02
2022-12-15T03:10:25.864Z,18.38
2022-12-15T03:13:11.314Z,17.85
2022-12-15T03:15:58.371Z,22.80
2022-12-15T03:18:44.347Z,21.15
2022-12-15T03:21:30.206Z,17.50
2022-12-15T03:24:15.514Z,19.90
2022-12-15T03:27:01.050Z,21.35
2022-12-15T03:29:46.343Z,21.65
2022-12-15T03:32:31.900Z,17.33
2022-12-15T03:35:17.422Z,22.85
2022-12-15T03:38:02.683Z,23.52
2022-12-15T03:40:48.325Z,29.27
2022-12-15T03:43:34.502Z,22.83
2022-12-15T03:46:20.345Z,20.30
2022-12-15T03:49:06.019Z,19.30
2022-12-15T03:51:52.420Z,19.25
2022-12-15T03:54:37.724Z,22.38
2022-12-15T03:57:23.329Z,24.20
2022-12-15T04:00:11.393Z,20.83
2022-12-15T04:03:00.302Z,23.07
2022-12-15T04:05:45.643Z,25.30
2022-12-15T04:08:31.084Z,20.70
2022-12-15T04:11:17.019Z,21.23
2022-12-15T04:14:02.811Z,25.27
2022-12-15T04:16:48.176Z,19.55
2022-12-15T04:19:52.038Z,26.70
2022-12-15T04:22:41.846Z,25.92
2022-12-15T04:25:47.154Z,22.27
2022-12-15T04:28:51.562Z,20.05
2022-12-15T04:31:55.859Z,21.02
2022-12-15T04:34:59.914Z,21.85
2022-12-15T04:38:04.024Z,18.67
2022-12-15T04:41:08.036Z,22.30
2022-12-15T04:44:13.753Z,19.52
2022-12-15T04:47:18.231Z,19.58
2022-12-15T04:50:23.376Z,20.17
2022-12-15T04:53:36.667Z,20.90
2022-12-15T04:56:41.456Z,22.80
2022-12-15T04:59:45.789Z,30.60
2022-12-15T05:02:49.956Z,31.23
2022-12-15T05:05:54.312Z,24.85
2022-12-15T05:08:58.482Z,27.08
2022-12-15T05:12:02.665Z,28.92
2022-12-15T05:15:07.047Z,31.73
2022-12-15T05:18:11.065Z,32.85
2022-12-15T05:21:17.109Z,38.25
2022-12-15T05:24:21.395Z,41.70
2022-12-15T05:27:26.877Z,38.55
2022-12-15T05:30:31.211Z,35.30
2022-12-15T05:33:17.357Z,30.38
2022-12-15T05:36:04.333Z,32.33
2022-12-15T05:38:51.232Z,29.38
2022-12-15T05:41:36.972Z,34.75
2022-12-15T05:44:23.730Z,26.45
2022-12-15T05:47:09.469Z,27.67
2022-12-15T05:49:55.246Z,24.83
2022-12-15T05:52:44.967Z,29.67
2022-12-15T05:55:33.519Z,24.70
2022-12-15T05:58:19.050Z,27.35
2022-12-15T06:01:15.784Z,21.98
2022-12-15T06:04:02.000Z,58.20
2022-12-15T06:06:47.935Z,60.55
2022-12-15T06:09:33.842Z,40.33
2022-12-15T06:12:19.331Z,33.30
2022-12-15T06:15:05.530Z,35.15
2022-12-15T06:17:53.630Z,37.17
2022-12-15T06:20:40.556Z,81.57
2022-12-15T06:23:29.330Z,86.93
2022-12-15T06:29:22.498Z,70.07
2022-12-15T06:32:08.166Z,55.05
2022-12-15T06:34:54.281Z,69.55
2022-12-15T06:37:39.987Z,46.58
2022-12-15T06:40:25.547Z,51.45
2022-12-15T06:43:11.888Z,46.88
2022-12-15T06:45:58.027Z,48.88
2022-12-15T06:48:45.719Z,57.00
2022-12-15T06:51:32.331Z,75.18
2022-12-15T06:54:18.332Z,64.10
2022-12-15T06:57:04.499Z,42.40
2022-12-15T06:59:49.830Z,41.85
2022-12-15T07:02:36.336Z,47.63
2022-12-15T07:05:22.734Z,45.75
2022-12-15T07:08:09.991Z,44.28
2022-12-15T07:10:55.464Z,38.38
2022-12-15T07:13:41.375Z,47.40
2022-12-15T07:16:27.013Z,55.25
2022-12-15T07:19:13.488Z,58.97
2022-12-15T07:22:01.505Z,60.25
2022-12-15T07:24:46.831Z,56.10
2022-12-15T07:27:32.923Z,62.75
2022-12-15T07:30:18.934Z,59.83
2022-12-15T07:33:05.884Z,55.63
2022-12-15T07:35:55.805Z,56.92
2022-12-15T07:38:42.353Z,56.05
2022-12-15T07:41:28.816Z,66.00
2022-12-15T07:44:15.204Z,46.30
2022-12-15T07:47:01.575Z,49.08
2022-12-15T07:49:47.924Z,37.78
2022-12-15T07:52:34.902Z,43.55
2022-12-15T07:55:37.230Z,38.22
2022-12-15T07:58:30.552Z,41.13
2022-12-15T08:01:16.650Z,38.70
2022-12-15T08:04:03.938Z,42.00
2022-12-15T08:06:51.203Z,50.88
2022-12-15T08:09:39.147Z,52.15
2022-12-15T08:12:24.907Z,52.60
2022-12-15T08:15:11.815Z,55.72
2022-12-15T08:17:57.528Z,47.00
2022-12-15T08:20:43.192Z,49.13
2022-12-15T08:23:29.240Z,38.42
2022-12-15T08:26:17.756Z,49.97
2022-12-15T08:32:12.122Z,62.33
2022-12-15T08:34:58.088Z,58.80
2022-12-15T08:37:45.428Z,52.20
2022-12-15T08:40:31.411Z,54.53
2022-12-15T08:43:17.397Z,53.28
2022-12-15T08:46:04.048Z,194.35
2022-12-15T08:48:50.867Z,149.30
2022-12-15T08:51:37.003Z,123.22
2022-12-15T08:54:23.015Z,127.45
2022-12-15T08:57:08.740Z,64.70
2022-12-15T08:59:54.697Z,69.05
2022-12-15T09:02:40.483Z,68.60
2022-12-15T09:05:27.095Z,75.65
2022-12-15T09:08:12.543Z,58.38
2022-12-15T09:10:59.625Z,79.38
2022-12-15T09:13:45.892Z,62.22
2022-12-15T09:16:31.906Z,63.55
2022-12-15T09:19:18.295Z,70.93
2022-12-15T09:22:05.962Z,69.15
2022-12-15T09:24:52.378Z,60.03
2022-12-15T09:27:39.856Z,65.82
2022-12-15T09:30:26.032Z,71.18
2022-12-15T09:33:12.179Z,69.88
2022-12-15T09:35:58.848Z,69.22
2022-12-15T09:38:45.003Z,133.68
2022-12-15T09:41:33.444Z,125.63
2022-12-15T09:44:21.377Z,68.78
2022-12-15T09:47:21.537Z,58.72
2022-12-15T09:50:12.040Z,68.75
2022-12-15T09:52:59.251Z,61.80
2022-12-15T09:55:48.992Z,74.60
2022-12-15T09:58:57.534Z,72.43
2022-12-15T10:01:43.889Z,70.05
2022-12-15T10:04:57.999Z,64.05
2022-12-15T10:07:46.741Z,70.20
2022-12-15T10:10:55.381Z,60.58
2022-12-15T10:14:13.152Z,62.42
2022-12-15T10:17:06.507Z,73.53
2022-12-15T10:20:01.978Z,75.43
2022-12-15T10:22:50.274Z,69.90
2022-12-15T10:25:37.091Z,76.07
2022-12-15T10:28:51.173Z,66.82
2022-12-15T10:32:10.841Z,62.20
2022-12-15T10:34:57.109Z,65.80
2022-12-15T10:37:42.913Z,61.75
2022-12-15T10:40:55.434Z,77.05
2022-12-15T10:43:44.249Z,65.93
2022-12-15T10:46:32.663Z,68.10
2022-12-15T10:49:18.866Z,112.28
2022-12-15T10:52:05.069Z,88.32
2022-12-15T10:54:53.111Z,95.25
2022-12-15T10:58:00.034Z,87.72
2022-12-15T11:00:46.639Z,80.13
2022-12-15T11:03:39.103Z,61.13
2022-12-15T11:06:28.838Z,40.92
2022-12-15T11:09:34.815Z,37.42
2022-12-15T11:12:44.033Z,32.85
2022-12-15T11:15:38.903Z,24.25
2022-12-15T11:18:44.419Z,22.92
2022-12-15T11:21:48.887Z,20.95
2022-12-15T11:24:55.076Z,25.02
2022-12-15T11:27:45.287Z,22.73
2022-12-15T11:30:39.991Z,20.98
2022-12-15T11:33:26.178Z,17.42
2022-12-15T11:36:39.558Z,20.00
2022-12-15T11:40:13.325Z,23.38
2022-12-15T11:43:14.482Z,22.13
2022-12-15T11:46:20.439Z,28.58
2022-12-15T11:49:42.555Z,34.42
2022-12-15T11:52:43.358Z,61.13
2022-12-15T11:55:47.633Z,43.67
2022-12-15T11:59:01.475Z,40.45
2022-12-15T12:01:55.474Z,39.45
2022-12-15T12:04:50.853Z,35.67
2022-12-15T12:07:47.175Z,40.35
2022-12-15T12:10:52.653Z,78.55
2022-12-15T12:14:41.433Z,73.90
2022-12-15T12:17:43.171Z,91.97
2022-12-15T12:21:13.225Z,61.67
2022-12-15T12:24:04.101Z,56.78
2022-12-15T12:27:10.593Z,60.97
2022-12-15T12:30:03.530Z,48.70
2022-12-15T12:33:00.020Z,36.83
2022-12-15T12:35:57.497Z,29.40
2022-12-15T12:38:56.278Z,26.40
2022-12-15T12:42:00.924Z,20.83
2022-12-15T12:44:47.001Z,21.23
2022-12-15T12:47:38.204Z,23.55
2022-12-15T12:50:30.251Z,23.67
2022-12-15T12:53:33.164Z,23.48
2022-12-15T12:56:42.980Z,27.88
2022-12-15T12:59:29.101Z,30.20
2022-12-15T13:02:14.878Z,23.95
2022-12-15T13:05:05.207Z,26.38
2022-12-15T13:08:06.352Z,26.58
2022-12-15T13:10:53.766Z,25.58
2022-12-15T13:13:51.013Z,29.65
2022-12-15T13:16:40.504Z,24.75
2022-12-15T13:19:59.774Z,22.35
2022-12-15T13:22:46.267Z,23.23
2022-12-15T13:25:42.994Z,28.65
2022-12-15T13:33:16.548Z,51.70
2022-12-15T13:36:02.818Z,26.02
2022-12-15T13:38:56.034Z,26.90
2022-12-15T13:45:50.614Z,22.42
2022-12-15T13:49:15.486Z,19.70
2022-12-15T13:52:04.144Z,21.80
2022-12-15T13:54:59.357Z,24.08
2022-12-15T13:58:07.486Z,21.08
2022-12-15T14:00:55.778Z,19.52
2022-12-15T14:04:06.227Z,31.55
2022-12-15T14:07:01.694Z,44.10
2022-12-15T14:09:50.538Z,43.15
2022-12-15T14:12:39.784Z,48.08
2022-12-15T14:15:33.046Z,44.30
2022-12-15T14:18:31.835Z,35.45
2022-12-15T14:21:23.245Z,33.17
2022-12-15T14:24:38.527Z,31.52
2022-12-15T14:27:31.163Z,30.30
2022-12-15T14:30:20.459Z,26.73
2022-12-15T14:33:15.271Z,39.10
2022-12-15T14:36:02.469Z,64.18
2022-12-15T14:38:54.081Z,29.30
2022-12-15T14:41:48.941Z,25.65
2022-12-15T14:44:39.375Z,27.27
2022-12-15T14:47:35.574Z,24.42
2022-12-15T14:50:25.229Z,32.95
2022-12-15T14:53:17.719Z,28.85
2022-12-15T14:59:20.924Z,29.30
2022-12-15T15:02:28.698Z,35.95
2022-12-15T15:05:27.439Z,48.20
2022-12-15T15:08:33.349Z,46.03
2022-12-15T15:11:48.330Z,43.85
2022-12-15T15:14:40.767Z,41.10
2022-12-15T15:17:30.432Z,39.70
2022-12-15T15:20:34.423Z,48.13
2022-12-15T15:23:21.094Z,47.67
2022-12-15T15:26:10.652Z,46.20
2022-12-15T15:28:57.134Z,47.95
2022-12-15T15:31:43.303Z,55.92
2022-12-15T15:34:29.135Z,52.70
2022-12-15T15:37:24.987Z,56.65
2022-12-15T15:40:14.783Z,41.22
2022-12-15T15:43:01.078Z,51.20
2022-12-15T15:45:49.408Z,48.15
2022-12-15T15:48:39.652Z,46.15
2022-12-15T15:51:27.370Z,50.70
2022-12-15T15:54:16.216Z,54.22
2022-12-15T15:57:02.291Z,40.25
2022-12-15T15:59:48.164Z,42.33
2022-12-15T16:02:33.819Z,43.55
2022-12-15T16:05:21.348Z,60.05
2022-12-15T16:08:09.507Z,63.05
2022-12-15T16:10:55.959Z,60.35
2022-12-15T16:13:41.607Z,57.60
2022-12-15T16:16:31.191Z,62.95
2022-12-15T16:19:17.219Z,66.45
2022-12-15T16:22:03.523Z,56.25
2022-12-15T16:24:50.842Z,48.65
2022-12-15T16:27:37.415Z,48.75
2022-12-15T16:30:26.151Z,47.83
2022-12-15T16:33:12.984Z,64.88
2022-12-15T16:35:59.452Z,61.90
2022-12-15T16:38:45.102Z,60.10
2022-12-15T16:41:31.371Z,37.00
2022-12-15T16:44:16.869Z,42.47
2022-12-15T16:47:02.400Z,46.22
2022-12-15T16:49:48.209Z,57.65
2022-12-15T16:52:34.363Z,56.35
2022-12-15T16:55:24.638Z,59.70
2022-12-15T16:58:15.202Z,48.92
2022-12-15T17:01:00.971Z,47.25
2022-12-15T17:03:47.348Z,46.50
2022-12-15T17:06:33.139Z,66.82
2022-12-15T17:09:22.932Z,60.20
2022-12-15T17:12:15.726Z,50.70
2022-12-15T17:15:02.563Z,51.63
2022-12-15T17:17:48.623Z,50.83
2022-12-15T17:20:34.435Z,53.33
2022-12-15T17:23:22.946Z,54.72
2022-12-15T17:26:28.725Z,57.65
2022-12-15T17:29:21.821Z,54.00
2022-12-15T17:32:13.654Z,65.88
2022-12-15T17:35:00.030Z,75.53
2022-12-15T17:37:46.182Z,115.25
2022-12-15T17:40:32.370Z,105.47
2022-12-15T17:43:21.397Z,77.53
2022-12-15T17:46:07.663Z,68.38
2022-12-15T17:48:53.946Z,59.65
2022-12-15T17:51:42.087Z,67.35
2022-12-15T17:54:28.444Z,68.85
2022-12-15T17:57:15.217Z,73.80
2022-12-15T18:00:02.372Z,72.88
2022-12-15T18:02:54.863Z,72.32
2022-12-15T18:05:41.432Z,54.40
2022-12-15T18:08:28.653Z,70.82
2022-12-15T18:11:16.720Z,67.15
2022-12-15T18:14:02.221Z,69.07
2022-12-15T18:16:49.209Z,59.03
2022-12-15T18:19:35.291Z,60.70
2022-12-15T18:22:24.012Z,58.70
2022-12-15T18:25:21.731Z,65.05
2022-12-15T18:28:35.538Z,58.83
2022-12-15T18:34:18.225Z,58.97
2022-12-15T18:37:14.053Z,55.38
2022-12-15T18:40:04.435Z,50.00
2022-12-15T18:42:51.106Z,49.17
2022-12-15T18:45:37.590Z,45.58
2022-12-15T18:48:30.528Z,45.95
2022-12-15T18:51:23.623Z,42.80
2022-12-15T18:54:23.146Z,42.17
2022-12-15T18:57:38.238Z,42.20
2022-12-15T19:00:27.969Z,40.90
2022-12-15T19:03:14.701Z,70.05
2022-12-15T19:06:02.066Z,77.78
2022-12-15T19:08:49.201Z,44.22
2022-12-15T19:11:34.872Z,53.35
2022-12-15T19:14:39.765Z,76.45
2022-12-15T19:17:43.703Z,107.75
2022-12-15T19:20:48.099Z,85.75
2022-12-15T19:23:34.023Z,77.95
2022-12-15T19:26:20.377Z,66.43
2022-12-15T19:29:21.980Z,85.07
2022-12-15T19:32:08.460Z,58.90
2022-12-15T19:34:54.613Z,47.80
2022-12-15T19:37:44.619Z,65.20
2022-12-15T19:40:32.868Z,72.63
2022-12-15T19:43:18.628Z,41.03
2022-12-15T19:46:04.842Z,38.25
2022-12-15T19:48:50.976Z,39.22
2022-12-15T19:51:37.530Z,32.08
2022-12-15T19:54:23.819Z,33.72
2022-12-15T19:57:17.922Z,37.90
2022-12-15T20:00:15.506Z,33.90
2022-12-15T20:03:02.117Z,30.98
2022-12-15T20:05:51.248Z,38.50
2022-12-15T20:08:40.710Z,48.50
2022-12-15T20:11:28.581Z,68.68
2022-12-15T20:14:17.478Z,77.78
2022-12-15T20:17:04.063Z,40.90
2022-12-15T20:19:49.599Z,37.92
2022-12-15T20:22:35.025Z,35.90
2022-12-15T20:25:27.317Z,47.13
2022-12-15T20:28:20.079Z,63.35
2022-12-15T20:31:06.052Z,56.33
2022-12-15T20:33:52.743Z,40.05
2022-12-15T20:36:38.909Z,31.10
2022-12-15T20:39:29.766Z,37.22
2022-12-15T20:42:18.842Z,49.92
2022-12-15T20:45:07.982Z,44.78
2022-12-15T20:47:59.053Z,43.92
2022-12-15T20:50:49.951Z,40.22
2022-12-15T20:53:35.433Z,37.85
2022-12-15T20:56:23.182Z,40.70
2022-12-15T20:59:08.865Z,34.50
2022-12-15T21:01:54.959Z,35.28
2022-12-15T21:04:43.376Z,225.50
2022-12-15T21:07:29.790Z,53.47
2022-12-15T21:10:17.907Z,170.07
2022-12-15T21:13:14.573Z,36.67
2022-12-15T21:16:01.209Z,31.88
2022-12-15T21:19:18.602Z,33.05
2022-12-15T21:21:56.091Z,36.35
2022-12-15T21:24:56.563Z,32.45
2022-12-15T21:27:42.705Z,32.30
2022-12-15T21:30:31.215Z,45.75
2022-12-15T21:33:17.676Z,87.90
2022-12-15T21:36:03.410Z,69.93
2022-12-15T21:38:51.917Z,41.97
2022-12-15T21:41:41.569Z,133.35
2022-12-15T21:44:27.363Z,75.72
2022-12-15T21:47:25.507Z,44.42
2022-12-15T21:50:11.733Z,77.68
2022-12-15T21:52:57.271Z,124.68
2022-12-15T21:55:45.934Z,68.45
2022-12-15T21:58:31.563Z,54.88
2022-12-15T22:01:20.953Z,64.88
2022-12-15T22:04:21.971Z,80.28
2022-12-15T22:07:14.477Z,124.93
2022-12-15T22:10:00.090Z,47.97
2022-12-15T22:12:55.908Z,28.88
2022-12-15T22:15:45.013Z,31.40
2022-12-15T22:18:30.936Z,29.60
2022-12-15T22:21:17.225Z,41.65
2022-12-15T22:24:03.032Z,26.38
2022-12-15T22:26:48.716Z,25.77
2022-12-15T22:29:34.417Z,24.65
2022-12-15T22:32:19.738Z,25.65
2022-12-15T22:35:16.237Z,23.33
2022-12-15T22:38:02.080Z,24.05
2022-12-15T22:40:51.301Z,28.27
2022-12-15T22:43:40.839Z,61.00
2022-12-15T22:46:26.752Z,29.88
2022-12-15T22:49:35.647Z,21.77
2022-12-15T22:52:21.560Z,40.72
2022-12-15T22:55:07.165Z,35.13
2022-12-15T22:58:08.280Z,27.27
2022-12-15T23:00:56.459Z,32.15
2022-12-15T23:03:42.273Z,46.65
2022-12-15T23:06:28.260Z,95.32
2022-12-15T23:09:14.077Z,46.33
2022-12-15T23:12:02.171Z,61.78
2022-12-15T23:15:06.166Z,43.20
2022-12-15T23:17:51.515Z,24.90
2022-12-15T23:20:37.647Z,27.88
2022-12-15T23:23:23.192Z,21.95
2022-12-15T23:26:08.584Z,27.27
2022-12-15T23:28:55.202Z,30.23
2022-12-15T23:31:40.766Z,32.45
2022-12-15T23:34:26.223Z,22.10
2022-12-15T23:37:12.024Z,22.88
2022-12-15T23:39:57.355Z,26.65
2022-12-15T23:42:43.148Z,25.20
2022-12-15T23:45:28.644Z,24.48
2022-12-15T23:48:15.054Z,26.65
2022-12-15T23:51:11.279Z,25.95
2022-12-15T23:53:57.038Z,30.42
2022-12-15T23:56:42.350Z,27.58
2022-12-15T23:59:28.437Z,30.38
